Time;durP1;ratioP1;P1;durP2;ratioP2;P2;SDS_P1;SDS_P2;PMS_P1;PMS_P2;Temp;Humidity;BMP_temperature;BMP_pressure;BME280_temperature;BME280_humidity;BME280_pressure;Samples;Min_cycle;Max_cycle;Signal;HPM_P1;HPM_P2
2022/03/15 00:00:37;;;;;;;12.02;7.63;;;6.90;99.90;;;;;;2062670;28;20121;-69
2022/03/15 00:01:38;;;;;;;15.82;8.13;;;6.90;99.90;;;;;;2070668;28;20584;-69
2022/03/15 00:02:39;;;;;;;12.82;8.05;;;6.90;99.90;;;;;;2070858;28;20564;-69
2022/03/15 00:03:40;;;;;;;13.90;7.80;;;6.90;99.90;;;;;;2071104;28;20026;-69
2022/03/15 00:04:40;;;;;;;13.93;8.18;;;6.80;99.90;;;;;;2071848;28;20026;-69
2022/03/15 00:05:41;;;;;;;13.98;7.95;;;6.80;99.90;;;;;;2062840;28;20030;-69
2022/03/15 00:06:42;;;;;;;12.55;7.72;;;6.70;99.90;;;;;;2055179;28;20037;-69
2022/03/15 00:07:44;;;;;;;10.00;7.28;;;6.70;99.90;;;;;;2071381;28;20137;-68
2022/03/15 00:08:44;;;;;;;11.15;7.35;;;6.70;99.90;;;;;;2071352;28;20040;-69
2022/03/15 00:09:45;;;;;;;12.70;7.97;;;6.60;99.90;;;;;;2063088;28;20050;-68
2022/03/15 00:10:48;;;;;;;12.75;8.18;;;6.60;99.90;;;;;;2071058;28;20572;-68
2022/03/15 00:11:48;;;;;;;11.98;7.57;;;6.60;99.90;;;;;;2071568;28;20030;-67
2022/03/15 00:12:51;;;;;;;12.30;7.53;;;6.50;99.90;;;;;;2071651;28;20033;-70
2022/03/15 00:13:59;;;;;;;10.40;6.75;;;6.50;99.90;;;;;;2071505;28;20104;-69
2022/03/15 00:14:59;;;;;;;11.95;7.43;;;6.50;99.90;;;;;;2071029;28;20042;-69
2022/03/15 00:16:01;;;;;;;12.18;7.85;;;6.50;99.90;;;;;;2070559;28;20034;-69
2022/03/15 00:17:03;;;;;;;10.95;7.70;;;6.40;99.90;;;;;;2070839;28;20058;-69
2022/03/15 00:18:03;;;;;;;10.82;7.50;;;6.40;99.90;;;;;;2071295;28;20034;-69
2022/03/15 00:19:04;;;;;;;11.80;7.50;;;6.40;99.90;;;;;;2071244;28;20029;-69
2022/03/15 00:20:07;;;;;;;12.43;7.72;;;6.30;99.90;;;;;;2071142;28;20030;-68
2022/03/15 00:21:10;;;;;;;11.00;7.28;;;6.30;99.90;;;;;;2071272;28;20125;-67
2022/03/15 00:22:11;;;;;;;11.02;7.72;;;6.30;99.90;;;;;;2071519;28;20169;-70
2022/03/15 00:23:11;;;;;;;14.57;8.85;;;6.20;99.90;;;;;;2071085;28;20557;-70
2022/03/15 00:24:12;;;;;;;13.00;8.48;;;6.20;99.90;;;;;;2071246;28;20055;-70
2022/03/15 00:25:16;;;;;;;13.65;8.30;;;6.20;99.90;;;;;;2071848;28;20037;-69
2022/03/15 00:26:17;;;;;;;12.52;7.80;;;6.20;99.90;;;;;;2071308;28;20033;-69
2022/03/15 00:27:18;;;;;;;11.07;8.05;;;6.20;99.90;;;;;;2070852;28;20044;-69
2022/03/15 00:28:19;;;;;;;13.57;8.40;;;6.20;99.90;;;;;;2070891;28;20030;-69
2022/03/15 00:29:23;;;;;;;13.23;8.90;;;6.10;99.90;;;;;;2070746;28;20144;-69
2022/03/15 00:30:24;;;;;;;14.45;8.98;;;6.10;99.90;;;;;;2070363;28;20106;-69
2022/03/15 00:31:26;;;;;;;12.55;9.27;;;6.10;99.90;;;;;;2062503;28;20559;-70
2022/03/15 00:32:26;;;;;;;13.23;9.20;;;6.10;99.90;;;;;;2062471;28;20023;-69
2022/03/15 00:33:34;;;;;;;15.75;9.65;;;6.00;99.90;;;;;;2061982;28;20472;-69
2022/03/15 00:34:35;;;;;;;13.70;8.90;;;6.00;99.90;;;;;;2070695;28;20030;-69
2022/03/15 00:35:37;;;;;;;15.07;9.00;;;6.00;99.90;;;;;;2070324;28;20036;-68
2022/03/15 00:36:37;;;;;;;12.35;8.60;;;6.00;99.90;;;;;;2062443;28;20045;-68
2022/03/15 00:37:38;;;;;;;12.32;8.70;;;5.90;99.90;;;;;;2062573;28;20453;-68
2022/03/15 00:38:41;;;;;;;12.38;8.32;;;5.90;99.90;;;;;;2062579;28;20026;-68
2022/03/15 00:39:42;;;;;;;12.20;8.60;;;5.90;99.90;;;;;;2070712;28;20044;-70
2022/03/15 00:40:43;;;;;;;12.07;8.60;;;5.90;99.90;;;;;;2062422;28;20027;-69
2022/03/15 00:41:43;;;;;;;12.27;8.27;;;5.80;99.90;;;;;;2054255;28;20031;-69
2022/03/15 00:42:47;;;;;;;12.75;8.23;;;5.80;99.90;;;;;;2070206;28;20029;-68
2022/03/15 00:43:50;;;;;;;11.73;8.13;;;5.80;99.90;;;;;;2071238;28;20036;-69
2022/03/15 00:44:50;;;;;;;13.15;8.85;;;5.80;99.90;;;;;;2071252;28;20037;-69
2022/03/15 00:45:51;;;;;;;12.10;8.43;;;5.70;99.90;;;;;;2070562;28;20045;-69
2022/03/15 00:46:52;;;;;;;15.10;9.27;;;5.70;99.90;;;;;;2070533;28;20033;-69
2022/03/15 00:47:54;;;;;;;14.73;8.70;;;5.70;99.90;;;;;;2070393;28;20119;-69
2022/03/15 00:48:55;;;;;;;16.08;9.57;;;5.60;99.90;;;;;;2070655;28;20022;-69
2022/03/15 00:49:56;;;;;;;22.38;11.75;;;5.60;99.90;;;;;;2071107;28;20022;-68
2022/03/15 00:50:57;;;;;;;37.72;15.57;;;5.60;99.90;;;;;;2070776;28;20118;-70
2022/03/15 00:51:58;;;;;;;32.95;15.15;;;5.70;99.90;;;;;;2071068;28;20034;-70
2022/03/15 00:52:59;;;;;;;27.98;13.68;;;5.60;99.90;;;;;;2070324;28;20039;-70
2022/03/15 00:54:00;;;;;;;26.80;12.55;;;5.60;99.90;;;;;;2071407;28;20029;-69
2022/03/15 00:55:01;;;;;;;21.60;12.07;;;5.70;99.90;;;;;;2070725;28;20029;-71
2022/03/15 00:56:03;;;;;;;22.77;12.32;;;5.70;99.90;;;;;;2062594;28;20084;-70
2022/03/15 00:57:03;;;;;;;22.25;11.52;;;5.70;99.90;;;;;;2062862;28;20443;-70
2022/03/15 00:58:05;;;;;;;19.60;11.23;;;5.70;99.90;;;;;;2070724;28;20125;-69
2022/03/15 00:59:07;;;;;;;18.92;11.73;;;5.80;99.90;;;;;;2062382;28;20547;-69
2022/03/15 01:00:08;;;;;;;21.35;12.60;;;5.80;99.90;;;;;;2062100;28;20126;-69
2022/03/15 01:01:09;;;;;;;20.40;12.05;;;5.70;99.90;;;;;;2062459;28;20042;-69
2022/03/15 01:02:10;;;;;;;18.98;11.43;;;5.70;99.90;;;;;;2062151;28;20041;-69
2022/03/15 01:03:11;;;;;;;19.25;11.73;;;5.70;99.90;;;;;;2069939;28;20018;-69
2022/03/15 01:04:13;;;;;;;16.90;10.70;;;5.60;99.90;;;;;;2070853;28;20041;-69
2022/03/15 01:05:13;;;;;;;19.05;11.05;;;5.60;99.90;;;;;;2070913;28;20036;-69
2022/03/15 01:06:14;;;;;;;20.00;11.25;;;5.60;99.90;;;;;;2071096;28;20101;-69
2022/03/15 01:07:15;;;;;;;18.52;10.77;;;5.60;99.90;;;;;;2070500;28;20053;-69
2022/03/15 01:08:16;;;;;;;19.05;10.80;;;5.60;99.90;;;;;;2061994;28;20026;-69
2022/03/15 01:09:16;;;;;;;18.23;11.00;;;5.50;99.90;;;;;;2070211;28;20018;-68
2022/03/15 01:10:17;;;;;;;19.73;11.10;;;5.50;99.90;;;;;;2070786;28;20082;-69
2022/03/15 01:11:18;;;;;;;17.65;10.77;;;5.50;99.90;;;;;;2070740;28;20071;-68
2022/03/15 01:12:19;;;;;;;16.88;10.93;;;5.50;99.90;;;;;;2069865;28;20132;-68
2022/03/15 01:13:20;;;;;;;19.38;10.80;;;5.50;99.90;;;;;;2070023;28;20038;-69
2022/03/15 01:14:20;;;;;;;16.60;10.80;;;5.50;99.90;;;;;;2070446;28;20030;-69
2022/03/15 01:15:24;;;;;;;16.30;10.40;;;5.50;99.90;;;;;;2062574;28;20034;-69
2022/03/15 01:16:25;;;;;;;17.80;9.85;;;5.50;99.90;;;;;;2062911;28;20035;-69
2022/03/15 01:17:26;;;;;;;15.35;9.40;;;5.50;99.90;;;;;;2062413;28;20030;-68
2022/03/15 01:18:26;;;;;;;15.57;9.55;;;5.50;99.90;;;;;;2070773;28;20061;-70
2022/03/15 01:19:27;;;;;;;14.45;9.52;;;5.40;99.90;;;;;;2071693;28;20038;-69
2022/03/15 01:20:28;;;;;;;13.55;9.38;;;5.40;99.90;;;;;;2063084;28;20121;-69
2022/03/15 01:21:29;;;;;;;13.45;8.50;;;5.40;99.90;;;;;;2054964;28;20023;-69
2022/03/15 01:22:29;;;;;;;13.75;8.77;;;5.40;99.90;;;;;;2071536;28;20057;-69
2022/03/15 01:23:31;;;;;;;14.00;9.13;;;5.30;99.90;;;;;;2063306;28;20118;-69
2022/03/15 01:24:32;;;;;;;12.65;8.93;;;5.30;99.90;;;;;;2063633;28;20152;-69
2022/03/15 01:25:33;;;;;;;13.13;9.05;;;5.30;99.90;;;;;;2071100;28;20853;-69
2022/03/15 01:26:40;;;;;;;13.60;9.05;;;5.30;99.90;;;;;;2071301;28;20030;-69
2022/03/15 01:27:40;;;;;;;14.13;8.63;;;5.30;99.90;;;;;;2071930;28;20026;-68
2022/03/15 01:28:42;;;;;;;12.93;8.55;;;5.20;99.90;;;;;;2063556;28;20085;-68
2022/03/15 01:29:43;;;;;;;14.63;8.50;;;5.20;99.90;;;;;;2071835;28;20074;-68
2022/03/15 01:30:43;;;;;;;11.93;8.30;;;5.20;99.90;;;;;;2071955;28;20083;-69
2022/03/15 01:31:45;;;;;;;12.40;8.20;;;5.20;99.90;;;;;;2063726;28;20125;-68
2022/03/15 01:32:48;;;;;;;14.30;8.88;;;5.20;99.90;;;;;;2071416;28;20083;-69
2022/03/15 01:33:51;;;;;;;15.82;9.48;;;5.20;99.90;;;;;;2063677;28;20023;-69
2022/03/15 01:34:52;;;;;;;17.52;10.00;;;5.20;99.90;;;;;;2071132;28;20033;-69
2022/03/15 01:35:54;;;;;;;16.50;10.27;;;5.20;99.90;;;;;;2070112;28;20026;-67
2022/03/15 01:36:54;;;;;;;16.77;11.00;;;5.20;99.90;;;;;;2070180;28;20041;-67
2022/03/15 01:37:55;;;;;;;17.60;10.88;;;5.10;99.90;;;;;;2062067;28;20053;-67
2022/03/15 01:38:57;;;;;;;16.38;10.75;;;5.10;99.90;;;;;;2061958;28;20038;-67
2022/03/15 01:40:00;;;;;;;19.15;11.20;;;5.10;99.90;;;;;;2069897;28;20524;-69
2022/03/15 01:41:01;;;;;;;18.13;10.65;;;5.10;99.90;;;;;;2070779;28;20038;-68
2022/03/15 01:42:02;;;;;;;18.52;11.23;;;5.10;99.90;;;;;;2069918;28;20029;-68
2022/03/15 01:43:05;;;;;;;16.92;11.40;;;5.10;99.90;;;;;;2061573;28;20555;-69
2022/03/15 01:44:18;;;;;;;16.95;11.15;;;5.00;99.90;;;;;;2062097;28;20030;-67
2022/03/15 01:45:18;;;;;;;18.70;11.05;;;5.00;99.90;;;;;;2069507;28;20846;-68
2022/03/15 01:46:19;;;;;;;15.30;10.30;;;5.00;99.90;;;;;;2061816;28;20034;-67
2022/03/15 01:47:19;;;;;;;17.48;11.25;;;5.00;99.90;;;;;;2061759;28;20508;-67
2022/03/15 01:48:20;;;;;;;18.75;11.85;;;4.90;99.90;;;;;;2061676;28;20033;-68
2022/03/15 01:49:21;;;;;;;17.45;11.18;;;4.90;99.90;;;;;;2053701;28;20173;-67
2022/03/15 01:50:23;;;;;;;17.08;10.95;;;4.90;99.90;;;;;;2069799;28;20030;-68
2022/03/15 01:51:24;;;;;;;18.20;11.52;;;4.90;99.90;;;;;;2070730;28;20022;-68
2022/03/15 01:52:25;;;;;;;19.50;11.90;;;4.90;99.90;;;;;;2070201;28;20044;-69
2022/03/15 01:53:26;;;;;;;17.80;11.50;;;4.90;99.90;;;;;;2061613;28;20038;-68
2022/03/15 01:54:27;;;;;;;18.00;11.80;;;4.90;99.90;;;;;;2069789;28;20026;-69
2022/03/15 01:55:27;;;;;;;16.55;10.98;;;4.90;99.90;;;;;;2069585;28;20423;-68
2022/03/15 01:56:29;;;;;;;16.40;10.73;;;4.90;99.90;;;;;;2061817;28;20067;-69
2022/03/15 01:57:29;;;;;;;18.70;11.32;;;4.90;99.90;;;;;;2061890;28;20022;-68
2022/03/15 01:58:30;;;;;;;16.67;10.95;;;4.90;99.90;;;;;;2069817;28;20018;-68
2022/03/15 01:59:32;;;;;;;17.92;10.90;;;4.90;99.90;;;;;;2061697;28;20449;-68
2022/03/15 02:00:34;;;;;;;16.35;11.02;;;4.80;99.90;;;;;;2069731;28;20034;-68
2022/03/15 02:01:37;;;;;;;15.30;10.18;;;4.80;99.90;;;;;;2069935;28;20481;-68
2022/03/15 02:02:38;;;;;;;16.38;10.35;;;4.80;99.90;;;;;;2069505;28;20095;-68
2022/03/15 02:03:39;;;;;;;16.58;10.82;;;4.80;99.90;;;;;;2069962;28;20042;-69
2022/03/15 02:04:40;;;;;;;16.02;10.50;;;4.90;99.90;;;;;;2069870;28;20036;-67
2022/03/15 02:05:41;;;;;;;15.75;10.05;;;4.90;99.90;;;;;;2070054;28;20714;-67
2022/03/15 02:06:42;;;;;;;15.18;9.93;;;4.90;99.90;;;;;;2070617;28;20069;-67
2022/03/15 02:07:43;;;;;;;14.50;10.27;;;4.80;99.90;;;;;;2070734;28;20026;-67
2022/03/15 02:08:43;;;;;;;13.63;9.73;;;4.80;99.90;;;;;;2071658;28;20038;-67
2022/03/15 02:09:44;;;;;;;12.80;9.43;;;4.80;99.90;;;;;;2072596;28;20078;-68
2022/03/15 02:10:45;;;;;;;12.73;9.32;;;4.80;99.90;;;;;;2071245;28;20434;-68
2022/03/15 02:11:46;;;;;;;14.65;9.52;;;4.80;99.90;;;;;;2070424;28;20109;-68
2022/03/15 02:12:46;;;;;;;12.75;9.30;;;4.80;99.90;;;;;;2070772;28;20026;-68
2022/03/15 02:13:47;;;;;;;12.50;8.75;;;4.80;99.90;;;;;;2070488;28;20639;-68
2022/03/15 02:14:48;;;;;;;13.00;9.32;;;4.80;99.90;;;;;;2062405;28;20107;-68
2022/03/15 02:15:49;;;;;;;16.00;9.90;;;4.80;99.90;;;;;;2054149;28;20064;-68
2022/03/15 02:16:50;;;;;;;15.60;10.27;;;4.80;99.90;;;;;;2061820;28;20026;-68
2022/03/15 02:17:51;;;;;;;15.45;10.88;;;4.80;99.90;;;;;;2061883;28;20172;-68
2022/03/15 02:18:52;;;;;;;18.52;11.07;;;4.80;99.90;;;;;;2069758;28;20573;-68
2022/03/15 02:19:53;;;;;;;18.08;11.75;;;4.80;99.90;;;;;;2070416;28;20045;-68
2022/03/15 02:20:56;;;;;;;17.60;11.77;;;4.80;99.90;;;;;;2070294;28;20061;-70
2022/03/15 02:21:57;;;;;;;14.98;10.32;;;4.80;99.90;;;;;;2069760;28;20045;-69
2022/03/15 02:22:58;;;;;;;15.65;10.48;;;4.80;99.90;;;;;;2069681;28;20503;-69
2022/03/15 02:23:58;;;;;;;15.63;10.07;;;4.80;99.90;;;;;;2070356;28;20042;-69
2022/03/15 02:24:59;;;;;;;16.73;10.85;;;4.80;99.90;;;;;;2070322;28;20048;-69
2022/03/15 02:25:59;;;;;;;15.30;10.93;;;4.80;99.90;;;;;;2070965;28;20036;-70
2022/03/15 02:27:01;;;;;;;15.80;10.75;;;4.80;99.90;;;;;;2070776;28;20057;-69
2022/03/15 02:28:02;;;;;;;18.10;11.50;;;4.80;99.90;;;;;;2070306;28;20041;-69
2022/03/15 02:29:02;;;;;;;16.73;11.30;;;4.90;99.90;;;;;;2070301;28;20129;-69
2022/03/15 02:30:05;;;;;;;17.55;11.07;;;4.90;99.90;;;;;;2070279;28;20443;-69
2022/03/15 02:31:06;;;;;;;16.08;11.02;;;4.90;99.90;;;;;;2070828;28;20681;-70
2022/03/15 02:32:07;;;;;;;15.73;10.23;;;4.90;99.90;;;;;;2070428;28;20026;-68
2022/03/15 02:33:08;;;;;;;16.30;10.70;;;4.90;99.90;;;;;;2070049;28;20028;-68
2022/03/15 02:34:09;;;;;;;13.82;10.25;;;4.90;99.90;;;;;;2070443;28;20847;-68
2022/03/15 02:35:09;;;;;;;13.95;9.93;;;4.90;99.90;;;;;;2070333;28;20033;-68
2022/03/15 02:36:10;;;;;;;16.25;10.15;;;4.90;99.90;;;;;;2069958;28;20030;-68
2022/03/15 02:37:11;;;;;;;14.27;10.00;;;4.80;99.90;;;;;;2070321;28;20080;-68
2022/03/15 02:38:11;;;;;;;14.63;10.00;;;4.80;99.90;;;;;;2070271;28;20024;-68
2022/03/15 02:39:12;;;;;;;14.27;9.77;;;4.80;99.90;;;;;;2070303;28;20040;-68
2022/03/15 02:40:13;;;;;;;15.07;9.98;;;4.80;99.90;;;;;;2070215;28;20121;-68
2022/03/15 02:41:15;;;;;;;14.55;10.10;;;4.80;99.90;;;;;;2070156;28;20034;-68
2022/03/15 02:42:16;;;;;;;15.75;9.93;;;4.80;99.90;;;;;;2069635;28;20072;-68
2022/03/15 02:43:17;;;;;;;13.90;9.45;;;4.70;99.90;;;;;;2069283;28;20037;-68
2022/03/15 02:44:17;;;;;;;15.32;10.10;;;4.70;99.90;;;;;;2070235;28;20445;-68
2022/03/15 02:45:19;;;;;;;13.52;9.30;;;4.70;99.90;;;;;;2070142;28;20245;-68
2022/03/15 02:46:19;;;;;;;13.98;9.80;;;4.70;99.90;;;;;;2069443;28;20066;-68
2022/03/15 02:47:20;;;;;;;14.70;10.45;;;4.70;99.90;;;;;;2069420;28;20026;-68
2022/03/15 02:48:20;;;;;;;14.25;10.00;;;4.70;99.90;;;;;;2069932;28;20076;-68
2022/03/15 02:49:21;;;;;;;13.32;9.75;;;4.70;99.90;;;;;;2069548;28;20033;-68
2022/03/15 02:50:22;;;;;;;14.57;9.80;;;4.60;99.90;;;;;;2069423;28;20042;-68
2022/03/15 02:51:23;;;;;;;14.73;9.73;;;4.60;99.90;;;;;;2070081;28;20036;-68
2022/03/15 02:52:29;;;;;;;14.50;9.88;;;4.60;99.90;;;;;;2070083;28;20025;-69
2022/03/15 02:53:30;;;;;;;13.45;9.68;;;4.60;99.90;;;;;;2069241;28;20038;-69
2022/03/15 02:54:32;;;;;;;14.98;10.43;;;4.60;99.90;;;;;;2069474;28;20041;-69
2022/03/15 02:55:32;;;;;;;13.40;9.80;;;4.60;99.90;;;;;;2069947;28;20026;-69
2022/03/15 02:56:36;;;;;;;13.73;9.75;;;4.50;99.90;;;;;;2069594;28;20026;-69
2022/03/15 02:57:37;;;;;;;15.32;10.00;;;4.50;99.90;;;;;;2061845;28;20516;-69
2022/03/15 02:58:41;;;;;;;13.35;9.60;;;4.50;99.90;;;;;;2069604;28;20030;-69
2022/03/15 02:59:42;;;;;;;16.35;10.45;;;4.50;99.90;;;;;;2070053;28;20026;-69
2022/03/15 03:00:43;;;;;;;17.33;10.98;;;4.50;99.90;;;;;;2069356;28;20037;-69
2022/03/15 03:01:45;;;;;;;15.07;10.82;;;4.50;99.90;;;;;;2069631;28;20022;-69
2022/03/15 03:02:46;;;;;;;17.08;11.50;;;4.40;99.90;;;;;;2069174;28;20034;-69
2022/03/15 03:03:47;;;;;;;16.33;11.43;;;4.40;99.90;;;;;;2069581;28;20030;-69
2022/03/15 03:04:48;;;;;;;19.52;11.95;;;4.40;99.90;;;;;;2070076;28;20030;-69
2022/03/15 03:05:48;;;;;;;18.40;11.35;;;4.50;99.90;;;;;;2069934;28;20580;-69
2022/03/15 03:06:49;;;;;;;16.38;11.65;;;4.40;99.90;;;;;;2070082;28;20030;-69
2022/03/15 03:07:50;;;;;;;15.98;11.63;;;4.40;99.90;;;;;;2070191;28;20061;-69
2022/03/15 03:08:52;;;;;;;17.15;11.50;;;4.40;99.90;;;;;;2070211;28;20033;-69
2022/03/15 03:09:53;;;;;;;16.10;11.10;;;4.40;99.90;;;;;;2070078;28;20060;-69
2022/03/15 03:10:58;;;;;;;16.20;11.32;;;4.40;99.90;;;;;;2070056;28;20057;-70
2022/03/15 03:11:58;;;;;;;16.20;11.27;;;4.40;99.90;;;;;;2069942;28;20090;-69
2022/03/15 03:12:59;;;;;;;16.88;11.32;;;4.40;99.90;;;;;;2069074;28;20111;-69
2022/03/15 03:14:00;;;;;;;15.85;10.88;;;4.40;99.90;;;;;;2069370;28;20037;-69
2022/03/15 03:15:02;;;;;;;16.80;11.65;;;4.40;99.90;;;;;;2069393;28;20167;-69
2022/03/15 03:16:03;;;;;;;14.95;11.27;;;4.40;99.90;;;;;;2069322;28;20033;-69
2022/03/15 03:17:04;;;;;;;16.17;11.35;;;4.40;99.90;;;;;;2069391;28;20044;-69
2022/03/15 03:18:04;;;;;;;16.10;11.32;;;4.40;99.90;;;;;;2069490;28;20045;-69
2022/03/15 03:19:08;;;;;;;16.52;11.23;;;4.40;99.90;;;;;;2070190;28;20049;-69
2022/03/15 03:20:13;;;;;;;15.48;11.48;;;4.40;99.90;;;;;;2071437;28;20524;-69
2022/03/15 03:21:14;;;;;;;16.35;11.40;;;4.40;99.90;;;;;;2071520;28;20188;-69
2022/03/15 03:22:15;;;;;;;17.70;11.95;;;4.40;99.90;;;;;;2062711;28;20043;-69
2022/03/15 03:23:17;;;;;;;18.00;12.38;;;4.40;99.90;;;;;;2062524;28;20473;-69
2022/03/15 03:24:23;;;;;;;17.98;12.65;;;4.40;99.90;;;;;;2071382;28;20026;-69
2022/03/15 03:25:25;;;;;;;18.05;13.35;;;4.40;99.90;;;;;;2071544;28;20026;-69
2022/03/15 03:26:26;;;;;;;19.52;13.32;;;4.30;99.90;;;;;;2071323;28;20129;-69
2022/03/15 03:27:30;;;;;;;17.77;12.48;;;4.30;99.90;;;;;;2070935;28;20129;-69
2022/03/15 03:28:37;;;;;;;17.02;13.30;;;4.30;99.90;;;;;;2062907;28;20060;-70
2022/03/15 03:29:37;;;;;;;19.00;13.77;;;4.30;99.90;;;;;;2071243;28;20014;-70
2022/03/15 03:30:38;;;;;;;19.63;14.23;;;4.30;99.90;;;;;;2071473;28;20034;-69
2022/03/15 03:31:40;;;;;;;18.63;14.05;;;4.30;99.90;;;;;;2071651;28;20042;-69
2022/03/15 03:32:41;;;;;;;18.08;13.70;;;4.30;99.90;;;;;;2071504;28;20030;-68
2022/03/15 03:33:41;;;;;;;21.65;15.38;;;4.40;99.90;;;;;;2071596;28;20079;-69
2022/03/15 03:34:43;;;;;;;22.10;15.50;;;4.40;99.90;;;;;;2071468;28;20033;-69
2022/03/15 03:35:43;;;;;;;21.05;15.15;;;4.40;99.90;;;;;;2070629;28;20049;-69
2022/03/15 03:36:44;;;;;;;25.55;15.52;;;4.30;99.90;;;;;;2071035;28;20430;-69
2022/03/15 03:37:44;;;;;;;25.13;15.80;;;4.40;99.90;;;;;;2071475;28;20079;-69
2022/03/15 03:38:45;;;;;;;25.35;16.15;;;4.30;99.90;;;;;;2071393;28;20457;-69
2022/03/15 03:39:46;;;;;;;24.15;15.15;;;4.30;99.90;;;;;;2071474;28;20026;-69
2022/03/15 03:40:46;;;;;;;26.35;15.77;;;4.30;99.90;;;;;;2071299;28;20053;-68
2022/03/15 03:41:47;;;;;;;25.77;16.40;;;4.30;99.90;;;;;;2071383;28;20452;-67
2022/03/15 03:42:48;;;;;;;26.27;16.67;;;4.30;99.90;;;;;;2071140;28;20034;-69
2022/03/15 03:43:48;;;;;;;25.63;15.88;;;4.30;99.90;;;;;;2071371;28;20029;-68
2022/03/15 03:44:49;;;;;;;26.95;16.10;;;4.30;99.90;;;;;;2071296;28;20055;-69
2022/03/15 03:45:50;;;;;;;25.13;15.82;;;4.30;99.90;;;;;;2071164;28;20053;-69
2022/03/15 03:46:50;;;;;;;24.13;15.98;;;4.30;99.90;;;;;;2071267;28;20034;-69
2022/03/15 03:47:52;;;;;;;25.08;15.25;;;4.30;99.90;;;;;;2070377;28;20088;-69
2022/03/15 03:48:53;;;;;;;24.25;15.77;;;4.30;99.90;;;;;;2070649;28;20030;-69
2022/03/15 03:49:53;;;;;;;25.83;15.73;;;4.30;99.90;;;;;;2071256;28;20030;-68
2022/03/15 03:50:55;;;;;;;26.67;15.95;;;4.30;99.90;;;;;;2071271;28;20564;-70
2022/03/15 03:51:56;;;;;;;27.50;16.13;;;4.30;99.90;;;;;;2071289;28;20029;-69
2022/03/15 03:52:57;;;;;;;25.10;15.27;;;4.30;99.90;;;;;;2071023;28;20018;-69
2022/03/15 03:53:57;;;;;;;25.48;15.38;;;4.30;99.90;;;;;;2071206;28;20032;-69
2022/03/15 03:54:58;;;;;;;26.60;15.95;;;4.20;99.90;;;;;;2070652;28;20102;-69
2022/03/15 03:55:59;;;;;;;27.85;15.65;;;4.20;99.90;;;;;;2070493;28;20034;-70
2022/03/15 03:57:00;;;;;;;25.58;14.93;;;4.20;99.90;;;;;;2070631;28;20048;-69
2022/03/15 03:58:00;;;;;;;24.25;14.95;;;4.20;99.90;;;;;;2062616;28;20037;-68
2022/03/15 03:59:01;;;;;;;23.60;14.82;;;4.20;99.90;;;;;;2070617;28;20042;-69
2022/03/15 04:00:04;;;;;;;24.85;14.75;;;4.20;99.90;;;;;;2070807;28;20102;-69
2022/03/15 04:01:13;;;;;;;24.80;13.77;;;4.20;99.90;;;;;;2071191;28;20400;-69
2022/03/15 04:02:14;;;;;;;24.08;14.25;;;4.20;99.90;;;;;;2071157;28;20062;-69
2022/03/15 04:03:16;;;;;;;21.40;13.65;;;4.20;99.90;;;;;;2071062;28;20022;-69
2022/03/15 04:04:17;;;;;;;19.27;12.63;;;4.20;99.90;;;;;;2071304;28;20044;-69
2022/03/15 04:05:20;;;;;;;20.67;12.77;;;4.20;99.90;;;;;;2070507;28;20140;-70
2022/03/15 04:06:20;;;;;;;19.15;12.43;;;4.20;99.90;;;;;;2070437;28;20079;-69
2022/03/15 04:07:21;;;;;;;20.30;12.90;;;4.20;99.90;;;;;;2071092;28;20083;-69
2022/03/15 04:08:23;;;;;;;19.00;12.20;;;4.20;99.90;;;;;;2071156;28;20439;-69
2022/03/15 04:09:23;;;;;;;16.45;11.52;;;4.20;99.90;;;;;;2071498;28;20038;-70
2022/03/15 04:10:25;;;;;;;17.83;12.70;;;4.20;99.90;;;;;;2071368;28;20030;-70
2022/03/15 04:11:27;;;;;;;17.08;11.95;;;4.20;99.90;;;;;;2071430;28;20087;-70
2022/03/15 04:12:28;;;;;;;17.38;11.43;;;4.20;99.90;;;;;;2070560;28;20034;-70
2022/03/15 04:13:29;;;;;;;14.65;10.80;;;4.20;99.90;;;;;;2070646;28;20067;-70
2022/03/15 04:14:30;;;;;;;16.48;11.20;;;4.10;99.90;;;;;;2071384;28;20057;-70
2022/03/15 04:15:31;;;;;;;16.45;11.15;;;4.10;99.90;;;;;;2071015;28;20535;-69
2022/03/15 04:16:32;;;;;;;16.23;11.00;;;4.20;99.90;;;;;;2071216;28;20033;-70
2022/03/15 04:17:32;;;;;;;16.25;11.23;;;4.10;99.90;;;;;;2071008;28;20029;-70
2022/03/15 04:18:33;;;;;;;16.40;11.85;;;4.10;99.90;;;;;;2070315;28;20117;-69
2022/03/15 04:19:34;;;;;;;18.17;11.35;;;4.10;99.90;;;;;;2070412;28;20049;-69
2022/03/15 04:20:35;;;;;;;15.98;10.65;;;4.10;99.90;;;;;;2070772;28;20034;-69
2022/03/15 04:21:36;;;;;;;16.38;11.00;;;4.10;99.90;;;;;;2070467;28;20036;-69
2022/03/15 04:22:37;;;;;;;16.42;10.75;;;4.10;99.90;;;;;;2062041;28;20022;-69
2022/03/15 04:23:38;;;;;;;14.32;10.50;;;4.10;99.90;;;;;;2062276;28;20056;-69
2022/03/15 04:24:38;;;;;;;16.95;10.60;;;4.10;99.90;;;;;;2062271;28;20521;-70
2022/03/15 04:25:39;;;;;;;16.65;10.98;;;4.10;99.90;;;;;;2070431;28;20429;-69
2022/03/15 04:26:41;;;;;;;17.20;10.98;;;4.00;99.90;;;;;;2071235;28;20034;-69
2022/03/15 04:27:41;;;;;;;15.27;10.82;;;4.00;99.90;;;;;;2071278;28;20416;-69
2022/03/15 04:28:42;;;;;;;14.82;10.07;;;4.00;99.90;;;;;;2071117;28;20034;-70
2022/03/15 04:29:43;;;;;;;20.60;11.07;;;4.00;99.90;;;;;;2070993;28;20121;-69
2022/03/15 04:30:43;;;;;;;22.45;13.77;;;4.00;99.90;;;;;;2070219;28;20022;-69
2022/03/15 04:31:44;;;;;;;18.83;11.95;;;4.00;99.90;;;;;;2070685;28;20026;-69
2022/03/15 04:32:44;;;;;;;18.13;11.25;;;4.00;99.90;;;;;;2069961;28;20504;-69
2022/03/15 04:33:45;;;;;;;15.70;11.10;;;4.00;99.90;;;;;;2070185;28;20370;-69
2022/03/15 04:34:46;;;;;;;15.57;11.10;;;4.00;99.90;;;;;;2070991;28;20030;-69
2022/03/15 04:35:47;;;;;;;16.65;10.85;;;4.00;99.90;;;;;;2070755;28;20124;-69
2022/03/15 04:36:47;;;;;;;15.13;10.23;;;4.00;99.90;;;;;;2070030;28;20032;-70
2022/03/15 04:37:52;;;;;;;15.93;10.20;;;4.00;99.90;;;;;;2069511;28;20527;-69
2022/03/15 04:38:53;;;;;;;15.20;10.00;;;4.00;99.90;;;;;;2069987;28;20634;-69
2022/03/15 04:39:56;;;;;;;15.88;9.95;;;3.90;99.90;;;;;;2070085;28;20109;-70
2022/03/15 04:40:58;;;;;;;13.63;9.60;;;4.00;99.90;;;;;;2070972;28;20029;-69
2022/03/15 04:41:59;;;;;;;14.93;9.65;;;4.00;99.90;;;;;;2070781;28;20091;-69
2022/03/15 04:43:01;;;;;;;16.30;10.38;;;3.90;99.90;;;;;;2069832;28;20137;-69
2022/03/15 04:44:02;;;;;;;16.42;10.45;;;4.00;99.90;;;;;;2069950;28;20014;-69
2022/03/15 04:45:03;;;;;;;15.88;10.55;;;3.90;99.90;;;;;;2070685;28;20061;-69
2022/03/15 04:46:09;;;;;;;16.45;10.52;;;4.00;99.90;;;;;;2070758;28;20258;-69
2022/03/15 04:47:10;;;;;;;15.50;10.18;;;4.00;99.90;;;;;;2070946;28;20117;-69
2022/03/15 04:48:11;;;;;;;15.40;10.38;;;3.90;99.90;;;;;;2070698;28;20415;-69
2022/03/15 04:49:11;;;;;;;14.98;10.57;;;3.90;99.90;;;;;;2070669;28;20062;-69
2022/03/15 04:50:12;;;;;;;14.65;10.10;;;3.90;99.90;;;;;;2070571;28;20065;-67
2022/03/15 04:51:14;;;;;;;14.63;10.05;;;3.90;99.90;;;;;;2070680;28;20080;-67
2022/03/15 04:52:15;;;;;;;13.77;9.65;;;3.90;99.90;;;;;;2069755;28;20099;-68
2022/03/15 04:53:16;;;;;;;14.55;10.00;;;3.90;99.90;;;;;;2069912;28;20534;-67
2022/03/15 04:54:18;;;;;;;13.98;9.80;;;3.90;99.90;;;;;;2070056;28;20204;-68
2022/03/15 04:55:18;;;;;;;13.07;9.68;;;3.90;99.90;;;;;;2069976;28;20390;-68
2022/03/15 04:56:21;;;;;;;13.73;9.73;;;3.80;99.90;;;;;;2070492;28;20116;-68
2022/03/15 04:57:22;;;;;;;14.43;9.85;;;3.80;99.90;;;;;;2070057;28;20038;-68
2022/03/15 04:58:23;;;;;;;16.88;11.15;;;3.80;99.90;;;;;;2061740;28;20041;-68
2022/03/15 04:59:23;;;;;;;17.30;11.02;;;3.80;99.90;;;;;;2069884;28;20029;-68
2022/03/15 05:00:24;;;;;;;17.25;11.30;;;3.80;99.90;;;;;;2070535;28;20170;-68
2022/03/15 05:01:25;;;;;;;15.35;10.77;;;3.80;99.90;;;;;;2070645;28;20030;-68
2022/03/15 05:02:26;;;;;;;15.48;10.75;;;3.80;99.90;;;;;;2070619;28;20034;-67
2022/03/15 05:03:27;;;;;;;14.85;10.57;;;3.80;99.90;;;;;;2070508;28;20048;-68
2022/03/15 05:04:27;;;;;;;16.13;11.05;;;3.80;99.90;;;;;;2070586;28;20489;-67
2022/03/15 05:05:28;;;;;;;14.60;10.20;;;3.80;99.90;;;;;;2070563;28;20179;-67
2022/03/15 05:06:29;;;;;;;14.60;10.02;;;3.80;99.90;;;;;;2070682;28;20026;-67
2022/03/15 05:07:30;;;;;;;15.32;10.18;;;3.80;99.90;;;;;;2070068;28;20591;-68
2022/03/15 05:08:31;;;;;;;14.07;10.27;;;3.70;99.90;;;;;;2069997;28;20050;-67
2022/03/15 05:09:31;;;;;;;16.23;10.40;;;3.70;99.90;;;;;;2069929;28;20090;-68
2022/03/15 05:11:51;;;;;;;15.23;10.55;;;3.80;99.90;;;;;;2070485;28;20117;-68
2022/03/15 05:12:52;;;;;;;18.42;10.60;;;3.70;99.90;;;;;;2070431;28;20149;-68
2022/03/15 05:13:52;;;;;;;16.13;10.40;;;3.80;99.90;;;;;;2070471;28;20033;-68
2022/03/15 05:14:53;;;;;;;16.00;11.02;;;3.80;99.90;;;;;;2069816;28;20087;-67
2022/03/15 05:15:54;;;;;;;16.67;11.23;;;3.80;99.90;;;;;;2069762;28;20415;-67
2022/03/15 05:16:55;;;;;;;14.70;10.27;;;3.80;99.90;;;;;;2069770;28;20042;-67
2022/03/15 05:17:55;;;;;;;16.58;10.95;;;3.80;99.90;;;;;;2069827;28;20030;-67